sensor_id;sensor_type;location;lat;lon;timestamp;temperature;humidity
1948;DHT22;974;52.400;9.818;2022-08-21T00:01:18;16.20;99.90
1948;DHT22;974;52.400;9.818;2022-08-21T00:03:44;16.10;99.90
1948;DHT22;974;52.400;9.818;2022-08-21T00:06:10;16.00;99.90
1948;DHT22;974;52.400;9.818;2022-08-21T00:08:36;16.20;99.90
1948;DHT22;974;52.400;9.818;2022-08-21T00:11:02;16.00;99.90
1948;DHT22;974;52.400;9.818;2022-08-21T00:13:28;16.00;99.90
1948;DHT22;974;52.400;9.818;2022-08-21T00:15:54;16.00;99.90
1948;DHT22;974;52.400;9.818;2022-08-21T00:18:20;16.00;99.90
1948;DHT22;974;52.400;9.818;2022-08-21T00:20:46;15.90;99.90
1948;DHT22;974;52.400;9.818;2022-08-21T00:23:13;15.90;99.90
1948;DHT22;974;52.400;9.818;2022-08-21T00:25:38;15.90;99.90
1948;DHT22;974;52.400;9.818;2022-08-21T00:28:04;16.00;99.90
1948;DHT22;974;52.400;9.818;2022-08-21T00:30:33;16.00;99.90
1948;DHT22;974;52.400;9.818;2022-08-21T00:32:59;16.00;99.90
1948;DHT22;974;52.400;9.818;2022-08-21T00:35:28;15.90;99.90
1948;DHT22;974;52.400;9.818;2022-08-21T00:37:54;15.80;99.90
1948;DHT22;974;52.400;9.818;2022-08-21T00:40:25;15.80;99.90
1948;DHT22;974;52.400;9.818;2022-08-21T00:42:51;15.70;99.90
1948;DHT22;974;52.400;9.818;2022-08-21T00:45:17;15.70;99.90
1948;DHT22;974;52.400;9.818;2022-08-21T00:47:42;15.80;99.90
1948;DHT22;974;52.400;9.818;2022-08-21T00:50:11;15.80;99.90
1948;DHT22;974;52.400;9.818;2022-08-21T00:52:37;15.80;99.90
1948;DHT22;974;52.400;9.818;2022-08-21T00:55:05;15.90;99.90
1948;DHT22;974;52.400;9.818;2022-08-21T00:57:36;15.70;99.90
1948;DHT22;974;52.400;9.818;2022-08-21T01:00:09;15.60;99.90
1948;DHT22;974;52.400;9.818;2022-08-21T01:02:35;15.60;99.90
1948;DHT22;974;52.400;9.818;2022-08-21T01:05:00;15.50;99.90
1948;DHT22;974;52.400;9.818;2022-08-21T01:07:26;15.70;99.90
1948;DHT22;974;52.400;9.818;2022-08-21T01:09:52;15.60;99.90
1948;DHT22;974;52.400;9.818;2022-08-21T01:12:18;15.60;99.90
1948;DHT22;974;52.400;9.818;2022-08-21T01:14:44;15.50;99.90
1948;DHT22;974;52.400;9.818;2022-08-21T01:17:11;15.50;99.90
1948;DHT22;974;52.400;9.818;2022-08-21T01:19:38;15.40;99.90
1948;DHT22;974;52.400;9.818;2022-08-21T01:22:03;15.30;99.90
1948;DHT22;974;52.400;9.818;2022-08-21T01:24:29;15.30;99.90
1948;DHT22;974;52.400;9.818;2022-08-21T01:26:56;15.30;99.90
1948;DHT22;974;52.400;9.818;2022-08-21T01:29:32;15.30;99.90
1948;DHT22;974;52.400;9.818;2022-08-21T01:32:02;15.40;99.90
1948;DHT22;974;52.400;9.818;2022-08-21T01:34:28;15.40;99.90
1948;DHT22;974;52.400;9.818;2022-08-21T01:36:54;15.30;99.90
1948;DHT22;974;52.400;9.818;2022-08-21T01:39:19;15.30;99.90
1948;DHT22;974;52.400;9.818;2022-08-21T01:41:45;15.20;99.90
1948;DHT22;974;52.400;9.818;2022-08-21T01:44:10;15.30;99.90
1948;DHT22;974;52.400;9.818;2022-08-21T01:46:36;15.30;99.90
1948;DHT22;974;52.400;9.818;2022-08-21T01:49:02;15.20;99.90
1948;DHT22;974;52.400;9.818;2022-08-21T01:51:28;15.10;99.90
1948;DHT22;974;52.400;9.818;2022-08-21T01:53:53;15.00;99.90
1948;DHT22;974;52.400;9.818;2022-08-21T01:56:19;15.10;99.90
1948;DHT22;974;52.400;9.818;2022-08-21T01:58:46;15.00;99.90
1948;DHT22;974;52.400;9.818;2022-08-21T02:01:12;15.00;99.90
1948;DHT22;974;52.400;9.818;2022-08-21T02:03:39;14.90;99.90
1948;DHT22;974;52.400;9.818;2022-08-21T02:06:07;14.90;99.90
1948;DHT22;974;52.400;9.818;2022-08-21T02:08:32;14.90;99.90
1948;DHT22;974;52.400;9.818;2022-08-21T02:10:59;14.90;99.90
1948;DHT22;974;52.400;9.818;2022-08-21T02:13:25;14.80;99.90
1948;DHT22;974;52.400;9.818;2022-08-21T02:15:51;14.90;99.90
1948;DHT22;974;52.400;9.818;2022-08-21T02:18:17;14.80;99.90
1948;DHT22;974;52.400;9.818;2022-08-21T02:20:47;14.80;99.90
1948;DHT22;974;52.400;9.818;2022-08-21T02:23:13;14.80;99.90
1948;DHT22;974;52.400;9.818;2022-08-21T02:25:40;14.90;99.90
1948;DHT22;974;52.400;9.818;2022-08-21T02:28:11;14.80;99.90
1948;DHT22;974;52.400;9.818;2022-08-21T02:30:41;14.90;99.90
1948;DHT22;974;52.400;9.818;2022-08-21T02:33:08;14.80;99.90
1948;DHT22;974;52.400;9.818;2022-08-21T02:35:35;14.70;99.90
1948;DHT22;974;52.400;9.818;2022-08-21T02:38:05;14.70;99.90
1948;DHT22;974;52.400;9.818;2022-08-21T02:40:34;14.70;99.90
1948;DHT22;974;52.400;9.818;2022-08-21T02:43:01;14.70;99.90
1948;DHT22;974;52.400;9.818;2022-08-21T02:45:28;14.70;99.90
1948;DHT22;974;52.400;9.818;2022-08-21T02:47:57;14.80;99.90
1948;DHT22;974;52.400;9.818;2022-08-21T02:50:30;14.70;99.90
1948;DHT22;974;52.400;9.818;2022-08-21T02:52:56;14.80;99.90
1948;DHT22;974;52.400;9.818;2022-08-21T02:55:24;14.80;99.90
1948;DHT22;974;52.400;9.818;2022-08-21T02:57:51;14.60;99.90
1948;DHT22;974;52.400;9.818;2022-08-21T03:00:17;14.60;99.90
1948;DHT22;974;52.400;9.818;2022-08-21T03:02:43;14.70;99.90
1948;DHT22;974;52.400;9.818;2022-08-21T03:05:12;14.60;99.90
1948;DHT22;974;52.400;9.818;2022-08-21T03:07:40;14.50;99.90
1948;DHT22;974;52.400;9.818;2022-08-21T03:10:06;14.60;99.90
1948;DHT22;974;52.400;9.818;2022-08-21T03:12:32;14.50;99.90
1948;DHT22;974;52.400;9.818;2022-08-21T03:14:58;14.40;99.90
1948;DHT22;974;52.400;9.818;2022-08-21T03:17:24;14.40;99.90
1948;DHT22;974;52.400;9.818;2022-08-21T03:19:50;14.50;99.90
1948;DHT22;974;52.400;9.818;2022-08-21T03:22:15;14.40;99.90
1948;DHT22;974;52.400;9.818;2022-08-21T03:24:41;14.40;99.90
1948;DHT22;974;52.400;9.818;2022-08-21T03:27:06;14.40;99.90
1948;DHT22;974;52.400;9.818;2022-08-21T03:29:32;14.30;99.90
1948;DHT22;974;52.400;9.818;2022-08-21T03:31:57;14.40;99.90
1948;DHT22;974;52.400;9.818;2022-08-21T03:34:23;14.40;99.90
1948;DHT22;974;52.400;9.818;2022-08-21T03:36:49;14.40;99.90
1948;DHT22;974;52.400;9.818;2022-08-21T03:39:17;14.40;99.90
1948;DHT22;974;52.400;9.818;2022-08-21T03:41:43;14.40;99.90
1948;DHT22;974;52.400;9.818;2022-08-21T03:44:09;14.40;99.90
1948;DHT22;974;52.400;9.818;2022-08-21T03:46:34;14.40;99.90
1948;DHT22;974;52.400;9.818;2022-08-21T03:49:00;14.40;99.90
1948;DHT22;974;52.400;9.818;2022-08-21T03:51:26;14.50;99.90
1948;DHT22;974;52.400;9.818;2022-08-21T03:53:51;14.50;99.90
1948;DHT22;974;52.400;9.818;2022-08-21T03:56:17;14.60;99.90
1948;DHT22;974;52.400;9.818;2022-08-21T03:58:43;14.70;99.90
1948;DHT22;974;52.400;9.818;2022-08-21T04:01:09;14.80;99.90
1948;DHT22;974;52.400;9.818;2022-08-21T04:03:36;14.80;99.90
1948;DHT22;974;52.400;9.818;2022-08-21T04:06:02;14.80;99.90
1948;DHT22;974;52.400;9.818;2022-08-21T04:08:28;15.00;99.90
1948;DHT22;974;52.400;9.818;2022-08-21T04:10:56;15.10;99.90
1948;DHT22;974;52.400;9.818;2022-08-21T04:13:23;15.00;99.90
1948;DHT22;974;52.400;9.818;2022-08-21T04:15:49;15.10;99.90
1948;DHT22;974;52.400;9.818;2022-08-21T04:18:16;15.10;99.90
1948;DHT22;974;52.400;9.818;2022-08-21T04:20:43;15.10;99.90
1948;DHT22;974;52.400;9.818;2022-08-21T04:23:10;15.20;99.90
1948;DHT22;974;52.400;9.818;2022-08-21T04:25:35;15.20;99.90
1948;DHT22;974;52.400;9.818;2022-08-21T04:28:02;15.30;99.90
1948;DHT22;974;52.400;9.818;2022-08-21T04:30:28;15.40;99.90
1948;DHT22;974;52.400;9.818;2022-08-21T04:32:54;15.40;99.90
1948;DHT22;974;52.400;9.818;2022-08-21T04:35:22;15.50;99.90
1948;DHT22;974;52.400;9.818;2022-08-21T04:37:49;15.50;99.90
1948;DHT22;974;52.400;9.818;2022-08-21T04:40:16;15.60;99.90
1948;DHT22;974;52.400;9.818;2022-08-21T04:42:48;15.70;99.90
1948;DHT22;974;52.400;9.818;2022-08-21T04:45:26;15.80;99.90
1948;DHT22;974;52.400;9.818;2022-08-21T04:47:53;15.80;99.90
1948;DHT22;974;52.400;9.818;2022-08-21T04:50:22;15.90;99.90
1948;DHT22;974;52.400;9.818;2022-08-21T04:52:49;15.90;99.90
1948;DHT22;974;52.400;9.818;2022-08-21T04:55:16;15.90;99.90
1948;DHT22;974;52.400;9.818;2022-08-21T04:57:42;15.90;99.90
1948;DHT22;974;52.400;9.818;2022-08-21T05:00:08;15.90;99.90
1948;DHT22;974;52.400;9.818;2022-08-21T05:02:36;16.00;99.90
1948;DHT22;974;52.400;9.818;2022-08-21T05:05:03;16.10;99.90
1948;DHT22;974;52.400;9.818;2022-08-21T05:07:29;16.20;99.90
1948;DHT22;974;52.400;9.818;2022-08-21T05:09:55;16.20;99.90
1948;DHT22;974;52.400;9.818;2022-08-21T05:12:22;16.30;99.90
1948;DHT22;974;52.400;9.818;2022-08-21T05:14:47;16.30;99.90
1948;DHT22;974;52.400;9.818;2022-08-21T05:17:13;16.20;99.90
1948;DHT22;974;52.400;9.818;2022-08-21T05:19:39;16.30;99.90
1948;DHT22;974;52.400;9.818;2022-08-21T05:22:05;16.40;99.90
1948;DHT22;974;52.400;9.818;2022-08-21T05:24:31;16.50;99.90
1948;DHT22;974;52.400;9.818;2022-08-21T05:26:57;16.50;99.90
1948;DHT22;974;52.400;9.818;2022-08-21T05:29:22;16.50;99.90
1948;DHT22;974;52.400;9.818;2022-08-21T05:31:48;16.60;99.90
1948;DHT22;974;52.400;9.818;2022-08-21T05:34:17;16.60;99.90
1948;DHT22;974;52.400;9.818;2022-08-21T05:36:44;16.70;99.90
1948;DHT22;974;52.400;9.818;2022-08-21T05:39:09;16.80;99.90
1948;DHT22;974;52.400;9.818;2022-08-21T05:41:35;16.80;99.90
1948;DHT22;974;52.400;9.818;2022-08-21T05:44:01;16.80;99.90
1948;DHT22;974;52.400;9.818;2022-08-21T05:46:26;16.90;99.90
1948;DHT22;974;52.400;9.818;2022-08-21T05:48:52;16.90;99.90
1948;DHT22;974;52.400;9.818;2022-08-21T05:51:17;17.00;99.90
1948;DHT22;974;52.400;9.818;2022-08-21T05:53:44;17.00;99.90
1948;DHT22;974;52.400;9.818;2022-08-21T05:56:11;17.00;99.90
1948;DHT22;974;52.400;9.818;2022-08-21T05:58:37;17.10;99.90
1948;DHT22;974;52.400;9.818;2022-08-21T06:01:04;17.10;99.90
1948;DHT22;974;52.400;9.818;2022-08-21T06:03:33;17.20;99.90
1948;DHT22;974;52.400;9.818;2022-08-21T06:06:00;17.20;99.90
1948;DHT22;974;52.400;9.818;2022-08-21T06:08:26;17.30;99.90
1948;DHT22;974;52.400;9.818;2022-08-21T06:10:53;17.30;99.90
1948;DHT22;974;52.400;9.818;2022-08-21T06:13:20;17.30;99.90
1948;DHT22;974;52.400;9.818;2022-08-21T06:15:46;17.30;99.90
1948;DHT22;974;52.400;9.818;2022-08-21T06:18:12;17.30;99.90
1948;DHT22;974;52.400;9.818;2022-08-21T06:20:38;17.30;99.90
1948;DHT22;974;52.400;9.818;2022-08-21T06:23:04;17.40;99.90
1948;DHT22;974;52.400;9.818;2022-08-21T06:25:30;17.40;99.90
1948;DHT22;974;52.400;9.818;2022-08-21T06:28:07;17.50;99.90
1948;DHT22;974;52.400;9.818;2022-08-21T06:30:34;17.50;99.90
1948;DHT22;974;52.400;9.818;2022-08-21T06:33:00;17.50;99.90
1948;DHT22;974;52.400;9.818;2022-08-21T06:35:27;17.50;99.90
1948;DHT22;974;52.400;9.818;2022-08-21T06:37:54;17.50;99.90
1948;DHT22;974;52.400;9.818;2022-08-21T06:40:20;17.50;99.90
1948;DHT22;974;52.400;9.818;2022-08-21T06:42:46;17.50;99.90
1948;DHT22;974;52.400;9.818;2022-08-21T06:45:12;17.50;99.90
1948;DHT22;974;52.400;9.818;2022-08-21T06:47:38;17.50;99.90
1948;DHT22;974;52.400;9.818;2022-08-21T06:50:04;17.50;99.90
1948;DHT22;974;52.400;9.818;2022-08-21T06:52:30;17.60;99.90
1948;DHT22;974;52.400;9.818;2022-08-21T06:54:55;17.60;99.90
1948;DHT22;974;52.400;9.818;2022-08-21T06:57:21;17.70;99.90
1948;DHT22;974;52.400;9.818;2022-08-21T06:59:47;17.70;99.90
1948;DHT22;974;52.400;9.818;2022-08-21T07:02:12;17.70;99.90
1948;DHT22;974;52.400;9.818;2022-08-21T07:04:38;17.70;99.90
1948;DHT22;974;52.400;9.818;2022-08-21T07:07:03;17.70;99.90
1948;DHT22;974;52.400;9.818;2022-08-21T07:09:29;17.80;99.90
1948;DHT22;974;52.400;9.818;2022-08-21T07:11:55;17.80;99.90
1948;DHT22;974;52.400;9.818;2022-08-21T07:14:21;17.80;99.90
1948;DHT22;974;52.400;9.818;2022-08-21T07:16:48;17.80;99.90
1948;DHT22;974;52.400;9.818;2022-08-21T07:19:14;17.90;99.90
1948;DHT22;974;52.400;9.818;2022-08-21T07:21:39;17.90;99.90
1948;DHT22;974;52.400;9.818;2022-08-21T07:24:05;17.90;99.90
1948;DHT22;974;52.400;9.818;2022-08-21T07:26:31;18.10;99.90
1948;DHT22;974;52.400;9.818;2022-08-21T07:28:56;18.10;99.90
1948;DHT22;974;52.400;9.818;2022-08-21T07:31:23;18.20;99.90
1948;DHT22;974;52.400;9.818;2022-08-21T07:33:49;18.20;99.90
1948;DHT22;974;52.400;9.818;2022-08-21T07:36:15;18.30;99.90
1948;DHT22;974;52.400;9.818;2022-08-21T07:38:41;18.40;99.90
1948;DHT22;974;52.400;9.818;2022-08-21T07:41:18;18.40;99.90
1948;DHT22;974;52.400;9.818;2022-08-21T07:43:45;18.50;99.90
1948;DHT22;974;52.400;9.818;2022-08-21T07:46:11;18.60;99.90
1948;DHT22;974;52.400;9.818;2022-08-21T07:48:38;18.90;99.90
1948;DHT22;974;52.400;9.818;2022-08-21T07:51:08;18.90;99.90
1948;DHT22;974;52.400;9.818;2022-08-21T07:53:35;19.00;99.90
1948;DHT22;974;52.400;9.818;2022-08-21T07:56:02;19.10;99.90
1948;DHT22;974;52.400;9.818;2022-08-21T07:58:28;19.20;99.90
1948;DHT22;974;52.400;9.818;2022-08-21T08:00:54;19.20;99.90
1948;DHT22;974;52.400;9.818;2022-08-21T08:03:19;19.30;99.90
1948;DHT22;974;52.400;9.818;2022-08-21T08:05:45;19.40;99.90
1948;DHT22;974;52.400;9.818;2022-08-21T08:08:10;19.50;99.90
1948;DHT22;974;52.400;9.818;2022-08-21T08:10:37;19.60;99.90
1948;DHT22;974;52.400;9.818;2022-08-21T08:13:03;19.70;99.90
1948;DHT22;974;52.400;9.818;2022-08-21T08:15:29;19.70;99.90
1948;DHT22;974;52.400;9.818;2022-08-21T08:17:55;19.80;99.90
1948;DHT22;974;52.400;9.818;2022-08-21T08:20:22;19.80;99.90
1948;DHT22;974;52.400;9.818;2022-08-21T08:22:48;20.00;99.90
1948;DHT22;974;52.400;9.818;2022-08-21T08:25:14;20.00;99.90
1948;DHT22;974;52.400;9.818;2022-08-21T08:27:41;20.00;99.90
1948;DHT22;974;52.400;9.818;2022-08-21T08:30:08;20.00;99.90
1948;DHT22;974;52.400;9.818;2022-08-21T08:32:34;20.10;99.90
1948;DHT22;974;52.400;9.818;2022-08-21T08:35:00;20.20;99.90
1948;DHT22;974;52.400;9.818;2022-08-21T08:37:25;20.30;99.90
1948;DHT22;974;52.400;9.818;2022-08-21T08:39:51;20.40;99.90
1948;DHT22;974;52.400;9.818;2022-08-21T08:42:23;20.40;99.90
1948;DHT22;974;52.400;9.818;2022-08-21T08:44:55;20.50;99.90
1948;DHT22;974;52.400;9.818;2022-08-21T08:47:22;20.60;99.90
1948;DHT22;974;52.400;9.818;2022-08-21T08:49:58;20.60;99.90
1948;DHT22;974;52.400;9.818;2022-08-21T08:52:31;20.80;99.90
1948;DHT22;974;52.400;9.818;2022-08-21T08:55:12;20.80;99.90
1948;DHT22;974;52.400;9.818;2022-08-21T08:57:41;20.90;99.90
1948;DHT22;974;52.400;9.818;2022-08-21T09:00:11;20.90;99.90
1948;DHT22;974;52.400;9.818;2022-08-21T09:02:41;20.90;99.90
1948;DHT22;974;52.400;9.818;2022-08-21T09:05:20;21.00;99.90
1948;DHT22;974;52.400;9.818;2022-08-21T09:10:19;21.10;99.90
1948;DHT22;974;52.400;9.818;2022-08-21T09:12:56;21.30;99.90
1948;DHT22;974;52.400;9.818;2022-08-21T09:15:38;21.30;99.90
1948;DHT22;974;52.400;9.818;2022-08-21T09:18:18;21.30;99.90
1948;DHT22;974;52.400;9.818;2022-08-21T09:24:29;21.50;99.90
1948;DHT22;974;52.400;9.818;2022-08-21T09:29:33;21.70;99.90
1948;DHT22;974;52.400;9.818;2022-08-21T09:32:00;21.60;99.90
1948;DHT22;974;52.400;9.818;2022-08-21T09:34:29;21.60;99.90
1948;DHT22;974;52.400;9.818;2022-08-21T09:36:57;21.90;99.90
1948;DHT22;974;52.400;9.818;2022-08-21T09:39:38;21.80;99.90
1948;DHT22;974;52.400;9.818;2022-08-21T09:42:07;21.80;99.90
1948;DHT22;974;52.400;9.818;2022-08-21T09:44:36;21.90;99.90
1948;DHT22;974;52.400;9.818;2022-08-21T09:47:06;22.00;99.90
1948;DHT22;974;52.400;9.818;2022-08-21T09:49:34;22.00;99.90
1948;DHT22;974;52.400;9.818;2022-08-21T09:52:02;22.00;99.90
1948;DHT22;974;52.400;9.818;2022-08-21T09:54:34;22.10;99.90
1948;DHT22;974;52.400;9.818;2022-08-21T09:57:14;22.10;99.90
1948;DHT22;974;52.400;9.818;2022-08-21T10:00:28;22.20;99.90
1948;DHT22;974;52.400;9.818;2022-08-21T10:03:07;22.30;99.90
1948;DHT22;974;52.400;9.818;2022-08-21T10:05:33;22.40;99.90
1948;DHT22;974;52.400;9.818;2022-08-21T10:08:00;22.40;99.90
1948;DHT22;974;52.400;9.818;2022-08-21T10:10:29;22.50;99.90
1948;DHT22;974;52.400;9.818;2022-08-21T10:13:02;22.70;99.90
1948;DHT22;974;52.400;9.818;2022-08-21T10:15:48;22.60;99.90
1948;DHT22;974;52.400;9.818;2022-08-21T10:18:27;22.70;99.90
1948;DHT22;974;52.400;9.818;2022-08-21T10:21:21;22.60;99.90
1948;DHT22;974;52.400;9.818;2022-08-21T10:24:00;22.70;99.90
1948;DHT22;974;52.400;9.818;2022-08-21T10:26:33;22.70;99.90
1948;DHT22;974;52.400;9.818;2022-08-21T10:43:00;22.80;99.90
1948;DHT22;974;52.400;9.818;2022-08-21T10:45:53;22.80;99.90
1948;DHT22;974;52.400;9.818;2022-08-21T10:48:37;23.00;99.90
1948;DHT22;974;52.400;9.818;2022-08-21T10:56:41;23.30;99.90
1948;DHT22;974;52.400;9.818;2022-08-21T11:04:32;24.00;99.90
1948;DHT22;974;52.400;9.818;2022-08-21T11:07:09;23.80;99.90
1948;DHT22;974;52.400;9.818;2022-08-21T11:09:36;23.80;99.90
1948;DHT22;974;52.400;9.818;2022-08-21T11:14:53;26.80;99.90
1948;DHT22;974;52.400;9.818;2022-08-21T11:17:37;28.90;97.10
1948;DHT22;974;52.400;9.818;2022-08-21T11:20:09;31.20;96.90
1948;DHT22;974;52.400;9.818;2022-08-21T11:22:43;32.20;86.10
1948;DHT22;974;52.400;9.818;2022-08-21T11:25:22;35.70;78.80
1948;DHT22;974;52.400;9.818;2022-08-21T11:27:58;36.40;74.60
1948;DHT22;974;52.400;9.818;2022-08-21T11:30:27;36.40;65.00
1948;DHT22;974;52.400;9.818;2022-08-21T11:35:53;35.20;55.20
1948;DHT22;974;52.400;9.818;2022-08-21T11:39:20;35.70;53.40
1948;DHT22;974;52.400;9.818;2022-08-21T11:41:40;34.10;55.00
1948;DHT22;974;52.400;9.818;2022-08-21T11:44:18;32.10;53.20
1948;DHT22;974;52.400;9.818;2022-08-21T11:47:31;32.10;56.50
1948;DHT22;974;52.400;9.818;2022-08-21T11:50:13;35.00;54.30
1948;DHT22;974;52.400;9.818;2022-08-21T11:53:17;37.20;50.30
1948;DHT22;974;52.400;9.818;2022-08-21T11:55:52;39.30;45.00
1948;DHT22;974;52.400;9.818;2022-08-21T11:58:30;34.50;46.70
1948;DHT22;974;52.400;9.818;2022-08-21T12:01:05;35.30;46.60
1948;DHT22;974;52.400;9.818;2022-08-21T12:03:39;36.80;44.60
1948;DHT22;974;52.400;9.818;2022-08-21T12:06:09;40.30;41.80
1948;DHT22;974;52.400;9.818;2022-08-21T12:08:42;42.20;36.70
1948;DHT22;974;52.400;9.818;2022-08-21T12:14:16;39.90;34.80
1948;DHT22;974;52.400;9.818;2022-08-21T12:16:43;40.40;34.20
1948;DHT22;974;52.400;9.818;2022-08-21T12:24:48;39.40;39.70
1948;DHT22;974;52.400;9.818;2022-08-21T12:29:47;38.50;36.30
1948;DHT22;974;52.400;9.818;2022-08-21T12:34:46;35.60;40.90
1948;DHT22;974;52.400;9.818;2022-08-21T12:39:51;37.50;34.70
1948;DHT22;974;52.400;9.818;2022-08-21T12:42:23;38.50;32.60
1948;DHT22;974;52.400;9.818;2022-08-21T12:44:57;40.40;34.30
1948;DHT22;974;52.400;9.818;2022-08-21T12:47:56;39.70;31.90
1948;DHT22;974;52.400;9.818;2022-08-21T12:50:32;37.00;34.80
1948;DHT22;974;52.400;9.818;2022-08-21T12:53:12;34.40;36.30
1948;DHT22;974;52.400;9.818;2022-08-21T12:55:42;33.10;38.30
1948;DHT22;974;52.400;9.818;2022-08-21T12:58:21;31.90;41.70
1948;DHT22;974;52.400;9.818;2022-08-21T13:01:03;30.90;42.70
1948;DHT22;974;52.400;9.818;2022-08-21T13:03:29;28.90;44.80
1948;DHT22;974;52.400;9.818;2022-08-21T13:05:55;28.50;46.40
1948;DHT22;974;52.400;9.818;2022-08-21T13:08:23;28.30;47.60
1948;DHT22;974;52.400;9.818;2022-08-21T13:10:58;28.00;49.00
1948;DHT22;974;52.400;9.818;2022-08-21T13:13:26;28.50;49.60
1948;DHT22;974;52.400;9.818;2022-08-21T13:16:06;28.80;49.00
1948;DHT22;974;52.400;9.818;2022-08-21T13:18:34;29.10;48.50
1948;DHT22;974;52.400;9.818;2022-08-21T13:21:11;28.70;49.20
1948;DHT22;974;52.400;9.818;2022-08-21T13:23:37;29.20;49.60
1948;DHT22;974;52.400;9.818;2022-08-21T13:26:19;28.90;49.80
1948;DHT22;974;52.400;9.818;2022-08-21T13:28:45;28.50;50.80
1948;DHT22;974;52.400;9.818;2022-08-21T13:31:16;28.50;51.50
1948;DHT22;974;52.400;9.818;2022-08-21T13:33:44;27.70;51.50
1948;DHT22;974;52.400;9.818;2022-08-21T13:36:15;27.30;52.40
1948;DHT22;974;52.400;9.818;2022-08-21T13:38:42;26.90;52.70
1948;DHT22;974;52.400;9.818;2022-08-21T13:41:19;26.80;53.00
1948;DHT22;974;52.400;9.818;2022-08-21T13:43:51;26.80;53.50
1948;DHT22;974;52.400;9.818;2022-08-21T13:46:22;26.60;54.10
1948;DHT22;974;52.400;9.818;2022-08-21T13:48:49;26.70;54.60
1948;DHT22;974;52.400;9.818;2022-08-21T13:51:15;26.70;54.80
1948;DHT22;974;52.400;9.818;2022-08-21T13:56:06;26.80;55.20
1948;DHT22;974;52.400;9.818;2022-08-21T13:58:42;26.90;55.20
1948;DHT22;974;52.400;9.818;2022-08-21T14:01:19;26.70;53.10
1948;DHT22;974;52.400;9.818;2022-08-21T14:03:47;26.90;54.30
1948;DHT22;974;52.400;9.818;2022-08-21T14:06:22;26.40;53.20
1948;DHT22;974;52.400;9.818;2022-08-21T14:08:59;26.10;53.90
1948;DHT22;974;52.400;9.818;2022-08-21T14:11:26;26.10;54.30
1948;DHT22;974;52.400;9.818;2022-08-21T14:14:00;26.50;55.30
1948;DHT22;974;52.400;9.818;2022-08-21T14:16:41;26.70;54.90
1948;DHT22;974;52.400;9.818;2022-08-21T14:19:20;26.50;55.80
1948;DHT22;974;52.400;9.818;2022-08-21T14:21:47;26.40;55.80
1948;DHT22;974;52.400;9.818;2022-08-21T14:24:24;26.30;56.20
1948;DHT22;974;52.400;9.818;2022-08-21T14:27:11;26.10;56.90
1948;DHT22;974;52.400;9.818;2022-08-21T14:29:40;26.10;58.10
1948;DHT22;974;52.400;9.818;2022-08-21T14:32:12;26.10;58.40
1948;DHT22;974;52.400;9.818;2022-08-21T14:34:39;25.80;58.60
1948;DHT22;974;52.400;9.818;2022-08-21T14:37:04;25.80;58.20
1948;DHT22;974;52.400;9.818;2022-08-21T14:39:30;25.80;57.70
1948;DHT22;974;52.400;9.818;2022-08-21T14:41:57;25.90;58.00
1948;DHT22;974;52.400;9.818;2022-08-21T14:44:22;25.90;58.30
1948;DHT22;974;52.400;9.818;2022-08-21T14:46:48;25.90;58.20
1948;DHT22;974;52.400;9.818;2022-08-21T14:49:14;25.90;57.80
1948;DHT22;974;52.400;9.818;2022-08-21T14:51:39;26.00;58.60
1948;DHT22;974;52.400;9.818;2022-08-21T14:54:06;26.10;58.00
1948;DHT22;974;52.400;9.818;2022-08-21T14:56:33;25.80;57.60
1948;DHT22;974;52.400;9.818;2022-08-21T14:59:02;25.70;57.50
1948;DHT22;974;52.400;9.818;2022-08-21T15:01:29;25.70;57.60
1948;DHT22;974;52.400;9.818;2022-08-21T15:03:56;25.60;58.40
1948;DHT22;974;52.400;9.818;2022-08-21T15:06:21;25.40;58.50
1948;DHT22;974;52.400;9.818;2022-08-21T15:08:47;25.20;59.30
1948;DHT22;974;52.400;9.818;2022-08-21T15:11:18;25.30;60.00
1948;DHT22;974;52.400;9.818;2022-08-21T15:13:44;25.30;59.20
1948;DHT22;974;52.400;9.818;2022-08-21T15:16:11;25.40;60.00
1948;DHT22;974;52.400;9.818;2022-08-21T15:18:37;25.40;60.00
1948;DHT22;974;52.400;9.818;2022-08-21T15:21:02;25.40;59.90
1948;DHT22;974;52.400;9.818;2022-08-21T15:23:28;25.40;60.00
1948;DHT22;974;52.400;9.818;2022-08-21T15:25:53;25.50;60.10
1948;DHT22;974;52.400;9.818;2022-08-21T15:28:20;25.40;59.80
1948;DHT22;974;52.400;9.818;2022-08-21T15:30:48;25.40;60.00
1948;DHT22;974;52.400;9.818;2022-08-21T15:33:14;25.30;59.70
1948;DHT22;974;52.400;9.818;2022-08-21T15:35:40;25.20;60.30
1948;DHT22;974;52.400;9.818;2022-08-21T15:38:05;25.10;60.60
1948;DHT22;974;52.400;9.818;2022-08-21T15:40:31;25.00;61.10
1948;DHT22;974;52.400;9.818;2022-08-21T15:43:01;25.00;61.60
1948;DHT22;974;52.400;9.818;2022-08-21T15:45:27;24.90;61.60
1948;DHT22;974;52.400;9.818;2022-08-21T15:47:53;25.00;62.20
1948;DHT22;974;52.400;9.818;2022-08-21T15:50:20;25.00;62.40
1948;DHT22;974;52.400;9.818;2022-08-21T15:52:45;24.90;61.90
1948;DHT22;974;52.400;9.818;2022-08-21T15:55:13;24.90;62.70
1948;DHT22;974;52.400;9.818;2022-08-21T15:57:45;24.90;62.40
1948;DHT22;974;52.400;9.818;2022-08-21T16:00:21;24.90;62.60
1948;DHT22;974;52.400;9.818;2022-08-21T16:02:50;25.00;62.80
1948;DHT22;974;52.400;9.818;2022-08-21T16:05:17;25.10;62.80
1948;DHT22;974;52.400;9.818;2022-08-21T16:07:45;25.20;62.70
1948;DHT22;974;52.400;9.818;2022-08-21T16:10:11;25.30;61.90
1948;DHT22;974;52.400;9.818;2022-08-21T16:12:41;25.20;62.40
1948;DHT22;974;52.400;9.818;2022-08-21T16:15:09;25.20;62.40
1948;DHT22;974;52.400;9.818;2022-08-21T16:17:37;25.30;62.50
1948;DHT22;974;52.400;9.818;2022-08-21T16:20:08;25.30;62.60
1948;DHT22;974;52.400;9.818;2022-08-21T16:22:34;25.30;62.70
1948;DHT22;974;52.400;9.818;2022-08-21T16:24:59;25.30;62.50
1948;DHT22;974;52.400;9.818;2022-08-21T16:27:25;25.30;62.80
1948;DHT22;974;52.400;9.818;2022-08-21T16:29:50;25.30;64.00
1948;DHT22;974;52.400;9.818;2022-08-21T16:32:16;25.40;63.00
1948;DHT22;974;52.400;9.818;2022-08-21T16:34:45;25.30;62.50
1948;DHT22;974;52.400;9.818;2022-08-21T16:37:15;25.20;62.80
1948;DHT22;974;52.400;9.818;2022-08-21T16:39:41;25.00;62.70
1948;DHT22;974;52.400;9.818;2022-08-21T16:42:09;24.90;63.00
1948;DHT22;974;52.400;9.818;2022-08-21T16:44:36;24.90;62.90
1948;DHT22;974;52.400;9.818;2022-08-21T16:47:02;24.90;64.00
1948;DHT22;974;52.400;9.818;2022-08-21T16:49:28;24.90;63.70
1948;DHT22;974;52.400;9.818;2022-08-21T16:51:53;24.90;64.40
1948;DHT22;974;52.400;9.818;2022-08-21T16:54:19;25.00;66.20
1948;DHT22;974;52.400;9.818;2022-08-21T16:56:45;25.00;65.30
1948;DHT22;974;52.400;9.818;2022-08-21T16:59:11;24.90;64.40
1948;DHT22;974;52.400;9.818;2022-08-21T17:01:38;24.90;64.10
1948;DHT22;974;52.400;9.818;2022-08-21T17:04:04;25.00;64.70
1948;DHT22;974;52.400;9.818;2022-08-21T17:06:30;25.00;64.50
1948;DHT22;974;52.400;9.818;2022-08-21T17:08:57;25.00;64.80
1948;DHT22;974;52.400;9.818;2022-08-21T17:11:52;25.00;64.40
1948;DHT22;974;52.400;9.818;2022-08-21T17:14:20;24.90;64.40
1948;DHT22;974;52.400;9.818;2022-08-21T17:16:48;24.90;64.90
1948;DHT22;974;52.400;9.818;2022-08-21T17:19:15;24.70;65.40
1948;DHT22;974;52.400;9.818;2022-08-21T17:21:41;24.80;65.00
1948;DHT22;974;52.400;9.818;2022-08-21T17:24:07;24.60;65.00
1948;DHT22;974;52.400;9.818;2022-08-21T17:26:33;24.50;65.40